Akureyri, Iceland
Current Conditions -  °F | °C
As of 8:00 AM on Monday 26 Jan 2015 (Local Time) from BIAR Reporting Station
Light Snow Light Snow  
Wind Chill: 21°   Ceiling: 4400
Heat Index: 27°   Visibility: 6mi
Dew Point: 25°   Wind: 5mph
Humidity: 93%   Direction: 270°W
Pressure: 29.41"   Gusts: NA
Location:  65.69°N, 18.12°W
Report Text: BIAR 260800Z 27004KT 230V310 9999 -SN SCT031 BKN044 OVC067 M03/M04 Q0996
Loading
Personal Weather Stations






























Interactive Weather Map New forecast layout! Learn more

10-Day Weather Forecast

Advertisements
Track Severe Weather on mobile